createdAt,value
2023-02-16T00:01:01.398Z,-1.06
2023-02-16T00:03:33.489Z,-1.03
2023-02-16T00:06:05.637Z,-1.03
2023-02-16T00:08:37.952Z,-1.16
2023-02-16T00:11:35.678Z,-1.28
2023-02-16T00:14:10.280Z,-1.13
2023-02-16T00:16:42.961Z,-1.13
2023-02-16T00:19:25.388Z,-1.09
2023-02-16T00:21:59.641Z,-1.35
2023-02-16T00:24:32.330Z,-1.28
2023-02-16T00:27:13.397Z,-1.09
2023-02-16T00:29:45.996Z,-1.24
2023-02-16T00:32:18.172Z,-1.21
2023-02-16T00:34:50.173Z,-1.22
2023-02-16T00:37:22.201Z,-1.17
2023-02-16T00:39:54.184Z,-1.28
2023-02-16T00:42:32.603Z,-1.39
2023-02-16T00:45:05.472Z,-1.25
2023-02-16T00:47:43.234Z,-1.27
2023-02-16T00:50:30.313Z,-1.28
2023-02-16T00:53:05.294Z,-1.33
2023-02-16T00:55:39.545Z,-1.33
2023-02-16T00:58:31.260Z,-1.19
2023-02-16T01:01:14.894Z,-1.24
2023-02-16T01:03:47.131Z,-1.20
2023-02-16T01:06:37.512Z,-1.25
2023-02-16T01:09:37.412Z,-1.18
2023-02-16T01:12:17.473Z,-1.31
2023-02-16T01:14:53.769Z,-1.27
2023-02-16T01:17:25.755Z,-1.45
2023-02-16T01:19:57.719Z,-1.81
2023-02-16T01:22:33.682Z,-1.68
2023-02-16T01:25:06.155Z,-1.48
2023-02-16T01:27:39.522Z,-1.29
2023-02-16T01:30:15.750Z,-1.51
2023-02-16T01:32:51.936Z,-1.42
2023-02-16T01:35:34.687Z,-1.29
2023-02-16T01:38:07.125Z,-1.38
2023-02-16T01:40:43.638Z,-1.46
2023-02-16T01:43:36.038Z,-1.51
2023-02-16T01:46:37.332Z,-1.38
2023-02-16T01:49:18.890Z,-1.38
2023-02-16T01:52:15.697Z,-1.37
2023-02-16T01:55:00.666Z,-1.40
2023-02-16T01:57:39.459Z,-1.40
2023-02-16T02:00:24.422Z,-1.44
2023-02-16T02:03:35.471Z,-1.56
2023-02-16T02:06:18.666Z,-1.57
2023-02-16T02:09:02.462Z,-1.61
2023-02-16T02:11:42.152Z,-1.77
2023-02-16T02:14:22.608Z,-1.80
2023-02-16T02:17:01.560Z,-1.75
2023-02-16T02:20:02.792Z,-1.75
2023-02-16T02:23:31.910Z,-1.72
2023-02-16T02:26:09.890Z,-1.73
2023-02-16T02:28:57.180Z,-1.90
2023-02-16T02:31:42.535Z,-1.76
2023-02-16T02:34:42.508Z,-2.23
2023-02-16T02:37:34.635Z,-1.80
2023-02-16T02:40:06.434Z,-1.70
2023-02-16T02:42:56.901Z,-1.74
2023-02-16T02:45:34.553Z,-1.79
2023-02-16T02:48:07.222Z,-1.79
2023-02-16T02:51:04.150Z,-1.75
2023-02-16T02:53:48.390Z,-1.84
2023-02-16T02:56:59.449Z,-1.77
2023-02-16T02:59:53.542Z,-1.84
2023-02-16T03:02:26.583Z,-2.04
2023-02-16T03:05:00.252Z,-2.00
2023-02-16T03:07:48.933Z,-1.89
2023-02-16T03:10:46.354Z,-1.95
2023-02-16T03:13:24.286Z,-2.05
2023-02-16T03:15:58.178Z,-2.05
2023-02-16T03:18:52.278Z,-2.06
2023-02-16T03:21:45.052Z,-2.06
2023-02-16T03:24:45.767Z,-2.23
2023-02-16T03:27:49.922Z,-2.09
2023-02-16T03:30:23.760Z,-2.09
2023-02-16T03:32:55.960Z,-2.26
2023-02-16T03:35:29.237Z,-2.16
2023-02-16T03:38:01.442Z,-2.05
2023-02-16T03:40:35.836Z,-2.41
2023-02-16T03:43:09.380Z,-2.15
2023-02-16T03:45:43.824Z,-2.26
2023-02-16T03:48:15.962Z,-2.24
2023-02-16T03:50:47.970Z,-2.55
2023-02-16T03:53:20.070Z,-2.08
2023-02-16T03:55:52.020Z,-2.06
2023-02-16T03:58:25.655Z,-2.05
2023-02-16T04:00:59.295Z,-2.03
2023-02-16T04:03:31.362Z,-2.15
2023-02-16T04:06:03.427Z,-2.22
2023-02-16T04:08:35.565Z,-2.16
2023-02-16T04:11:27.646Z,-2.59
2023-02-16T04:13:59.619Z,-2.31
2023-02-16T04:16:31.720Z,-2.13
2023-02-16T04:19:03.859Z,-2.56
2023-02-16T04:21:35.828Z,-2.14
2023-02-16T04:24:07.954Z,-2.32
2023-02-16T04:26:40.072Z,-2.22
2023-02-16T04:29:12.084Z,-2.40
2023-02-16T04:31:44.216Z,-2.53
2023-02-16T04:34:16.532Z,-2.51
2023-02-16T04:36:48.525Z,-2.49
2023-02-16T04:39:21.178Z,-2.49
2023-02-16T04:41:53.255Z,-2.56
2023-02-16T04:44:25.402Z,-2.12
2023-02-16T04:46:57.848Z,-2.11
2023-02-16T04:49:29.859Z,-2.12
2023-02-16T04:52:04.239Z,-2.23
2023-02-16T04:54:36.229Z,-2.05
2023-02-16T04:57:08.538Z,-2.10
2023-02-16T04:59:40.520Z,-2.12
2023-02-16T05:02:12.611Z,-2.25
2023-02-16T05:04:44.734Z,-2.70
2023-02-16T05:07:16.770Z,-2.18
2023-02-16T05:09:48.765Z,-2.59
2023-02-16T05:12:39.874Z,-2.81
2023-02-16T05:15:11.868Z,-2.29
2023-02-16T05:17:44.072Z,-2.26
2023-02-16T05:20:16.125Z,-3.00
2023-02-16T05:22:48.146Z,-2.49
2023-02-16T05:25:20.318Z,-2.34
2023-02-16T05:27:52.335Z,-2.65
2023-02-16T05:30:24.409Z,-2.70
2023-02-16T05:32:56.580Z,-2.54
2023-02-16T05:35:28.622Z,-2.96
2023-02-16T05:38:00.648Z,-2.87
2023-02-16T05:40:32.796Z,-2.40
2023-02-16T05:43:04.802Z,-2.68
2023-02-16T05:45:39.034Z,-2.44
2023-02-16T05:48:11.047Z,-2.68
2023-02-16T05:50:43.183Z,-2.71
2023-02-16T05:53:15.240Z,-2.66
2023-02-16T05:55:47.217Z,-2.90
2023-02-16T05:58:19.218Z,-2.41
2023-02-16T06:00:51.270Z,-2.29
2023-02-16T06:03:23.267Z,-3.12
2023-02-16T06:05:57.598Z,-3.11
2023-02-16T06:08:30.775Z,-2.69
2023-02-16T06:11:03.178Z,-2.30
2023-02-16T06:13:36.616Z,-2.32
2023-02-16T06:16:08.702Z,-2.23
2023-02-16T06:18:41.253Z,-2.37
2023-02-16T06:21:13.990Z,-2.38
2023-02-16T06:23:46.036Z,-2.54
2023-02-16T06:26:18.759Z,-2.32
2023-02-16T06:28:50.932Z,-1.77
2023-02-16T06:31:24.295Z,-1.70
2023-02-16T06:33:57.333Z,-1.82
2023-02-16T06:36:29.398Z,-2.36
2023-02-16T06:39:01.438Z,-1.77
2023-02-16T06:41:38.216Z,-2.35
2023-02-16T06:44:15.023Z,-2.04
2023-02-16T06:46:48.584Z,-1.92
2023-02-16T06:49:21.639Z,-1.75
2023-02-16T06:51:53.838Z,-1.70
2023-02-16T06:54:25.860Z,-1.40
2023-02-16T06:56:57.849Z,-1.35
2023-02-16T06:59:29.866Z,-1.83
2023-02-16T07:02:01.824Z,-1.37
2023-02-16T07:04:33.732Z,-1.77
2023-02-16T07:07:05.876Z,-1.24
2023-02-16T07:09:37.898Z,-1.14
2023-02-16T07:12:09.887Z,-1.32
2023-02-16T07:14:43.870Z,-0.96
2023-02-16T07:17:16.193Z,-0.93
2023-02-16T07:19:48.128Z,-0.85
2023-02-16T07:22:20.241Z,-0.75
2023-02-16T07:24:52.255Z,-0.75
2023-02-16T07:27:26.852Z,-0.63
2023-02-16T07:29:58.865Z,-0.71
2023-02-16T07:32:31.015Z,-0.73
2023-02-16T07:35:02.949Z,-0.54
2023-02-16T07:37:34.884Z,-0.50
2023-02-16T07:40:07.598Z,-0.45
2023-02-16T07:42:39.704Z,-0.57
2023-02-16T07:45:11.716Z,-0.21
2023-02-16T07:47:43.764Z,-0.07
2023-02-16T07:50:16.941Z,-0.22
2023-02-16T07:52:48.904Z,-0.07
2023-02-16T07:55:20.868Z,-0.06
2023-02-16T07:57:57.212Z,-0.56
2023-02-16T08:00:29.165Z,-0.12
2023-02-16T08:03:01.586Z,0.08
2023-02-16T08:05:34.612Z,0.22
2023-02-16T08:08:06.912Z,0.24
2023-02-16T08:10:38.867Z,-0.13
2023-02-16T08:13:10.862Z,0.29
2023-02-16T08:15:44.621Z,0.39
2023-02-16T08:18:16.620Z,0.17
2023-02-16T08:21:03.419Z,0.26
2023-02-16T08:23:36.058Z,0.61
2023-02-16T08:26:10.367Z,0.43
2023-02-16T08:28:46.287Z,0.65
2023-02-16T08:31:20.823Z,0.59
2023-02-16T08:33:54.401Z,1.06
2023-02-16T08:36:38.644Z,1.06
2023-02-16T08:39:17.490Z,1.36
2023-02-16T08:41:53.796Z,1.45
2023-02-16T08:44:27.066Z,1.54
2023-02-16T08:47:01.306Z,1.49
2023-02-16T08:49:33.285Z,1.70
2023-02-16T08:52:05.804Z,1.84
2023-02-16T08:54:37.742Z,1.64
2023-02-16T08:57:09.823Z,1.60
2023-02-16T08:59:41.839Z,1.88
2023-02-16T09:02:13.817Z,2.11
2023-02-16T09:04:47.846Z,2.05
2023-02-16T09:07:21.732Z,2.24
2023-02-16T09:09:53.760Z,2.40
2023-02-16T09:12:25.925Z,2.26
2023-02-16T09:14:57.883Z,2.54
2023-02-16T09:17:29.933Z,2.55
2023-02-16T09:20:02.481Z,2.42
2023-02-16T09:22:34.682Z,2.37
2023-02-16T09:25:08.603Z,2.44
2023-02-16T09:27:40.565Z,2.51
2023-02-16T09:30:12.903Z,2.77
2023-02-16T09:32:45.480Z,2.85
2023-02-16T09:35:17.593Z,3.02
2023-02-16T09:37:50.278Z,3.00
2023-02-16T09:40:22.257Z,2.89
2023-02-16T09:43:03.372Z,2.84
2023-02-16T09:45:46.335Z,2.77
2023-02-16T09:48:34.644Z,3.12
2023-02-16T09:51:09.468Z,3.14
2023-02-16T09:53:45.480Z,2.95
2023-02-16T09:56:35.462Z,3.26
2023-02-16T09:59:26.061Z,3.30
2023-02-16T10:02:26.777Z,3.34
2023-02-16T10:05:08.758Z,3.47
2023-02-16T10:08:07.308Z,3.52
2023-02-16T10:10:48.285Z,3.66
2023-02-16T10:13:38.155Z,3.45
2023-02-16T10:16:18.924Z,3.73
2023-02-16T10:18:55.372Z,3.56
2023-02-16T10:21:31.694Z,3.76
2023-02-16T10:24:09.083Z,3.93
2023-02-16T10:27:08.620Z,4.00
2023-02-16T10:29:40.837Z,3.76
2023-02-16T10:32:43.727Z,4.05
2023-02-16T10:35:20.939Z,4.17
2023-02-16T10:38:07.893Z,4.55
2023-02-16T10:40:51.256Z,4.44
2023-02-16T10:43:39.190Z,4.67
2023-02-16T10:46:15.722Z,4.44
2023-02-16T10:48:48.844Z,4.72
2023-02-16T10:51:25.559Z,4.41
2023-02-16T10:54:02.444Z,4.65
2023-02-16T10:57:01.534Z,4.75
2023-02-16T10:59:42.231Z,4.54
2023-02-16T11:02:35.725Z,4.94
2023-02-16T11:05:26.533Z,4.92
2023-02-16T11:08:01.958Z,5.02
2023-02-16T11:10:49.104Z,4.93
2023-02-16T11:13:34.948Z,5.06
2023-02-16T11:16:12.431Z,5.08
2023-02-16T11:18:50.035Z,5.24
2023-02-16T11:21:22.169Z,5.38
2023-02-16T11:24:02.504Z,5.38
2023-02-16T11:26:34.501Z,5.38
2023-02-16T11:29:20.673Z,5.37
2023-02-16T11:31:52.739Z,5.36
2023-02-16T11:34:37.192Z,5.40
2023-02-16T11:37:27.079Z,5.48
2023-02-16T11:40:03.534Z,5.61
2023-02-16T11:42:44.238Z,5.39
2023-02-16T11:45:35.693Z,5.62
2023-02-16T11:48:25.322Z,5.63
2023-02-16T11:51:07.213Z,5.69
2023-02-16T11:53:43.788Z,5.59
2023-02-16T11:56:27.540Z,5.87
2023-02-16T11:59:16.325Z,5.90
2023-02-16T12:01:54.089Z,5.97
2023-02-16T12:04:47.976Z,5.94
2023-02-16T12:07:27.344Z,5.88
2023-02-16T12:10:29.223Z,6.05
2023-02-16T12:13:04.413Z,5.95
2023-02-16T12:15:47.290Z,6.14
2023-02-16T12:18:51.469Z,6.14
2023-02-16T12:21:44.146Z,6.34
2023-02-16T12:24:37.375Z,6.43
2023-02-16T12:27:22.485Z,6.47
2023-02-16T12:30:20.368Z,6.66
2023-02-16T12:33:20.972Z,6.59
2023-02-16T12:36:11.805Z,6.47
2023-02-16T12:39:02.485Z,6.52
2023-02-16T12:41:46.172Z,6.75
2023-02-16T12:44:42.347Z,6.77
2023-02-16T12:47:27.114Z,6.75
2023-02-16T12:50:08.255Z,6.54
2023-02-16T12:52:58.194Z,6.63
2023-02-16T12:55:38.624Z,6.75
2023-02-16T12:58:29.322Z,6.86
2023-02-16T13:01:09.330Z,6.80
2023-02-16T13:04:07.798Z,6.87
2023-02-16T13:07:00.343Z,6.84
2023-02-16T13:09:58.898Z,6.61
2023-02-16T13:12:42.593Z,6.91
2023-02-16T13:15:23.172Z,6.82
2023-02-16T13:18:03.464Z,6.72
2023-02-16T13:20:40.049Z,6.76
2023-02-16T13:23:31.376Z,7.04
2023-02-16T13:26:26.819Z,6.76
2023-02-16T13:29:11.321Z,6.92
2023-02-16T13:35:36.007Z,7.02
2023-02-16T13:38:23.415Z,7.03
2023-02-16T13:41:12.067Z,6.92
2023-02-16T13:43:48.348Z,6.86
2023-02-16T13:46:28.931Z,6.95
2023-02-16T13:49:02.627Z,6.71
2023-02-16T13:51:44.558Z,6.67
2023-02-16T13:54:32.034Z,6.62
2023-02-16T13:57:04.844Z,6.75
2023-02-16T13:59:37.039Z,6.60
2023-02-16T14:02:13.489Z,6.67
2023-02-16T14:04:51.575Z,6.64
2023-02-16T14:07:32.984Z,6.52
2023-02-16T14:10:06.117Z,6.56
2023-02-16T14:12:39.892Z,6.56
2023-02-16T14:15:20.828Z,6.25
2023-02-16T14:17:52.802Z,6.17
2023-02-16T14:20:29.433Z,6.26
2023-02-16T14:23:01.696Z,6.26
2023-02-16T14:25:37.900Z,6.26
2023-02-16T14:28:22.027Z,6.12
2023-02-16T14:30:57.269Z,6.15
2023-02-16T14:33:50.513Z,6.10
2023-02-16T14:36:27.481Z,6.01
2023-02-16T14:39:02.466Z,6.06
2023-02-16T14:41:37.081Z,5.96
2023-02-16T14:44:40.661Z,5.98
2023-02-16T14:47:36.246Z,5.91
2023-02-16T14:50:21.880Z,5.97
2023-02-16T14:53:16.799Z,5.80
2023-02-16T14:56:42.750Z,5.82
2023-02-16T14:59:28.517Z,5.67
2023-02-16T15:02:00.851Z,5.79
2023-02-16T15:04:35.384Z,5.52
2023-02-16T15:07:08.015Z,5.46
2023-02-16T15:09:42.459Z,5.61
2023-02-16T15:12:24.545Z,5.55
2023-02-16T15:15:03.822Z,5.26
2023-02-16T15:17:40.601Z,5.46
2023-02-16T15:20:25.380Z,5.36
2023-02-16T15:23:00.133Z,5.29
2023-02-16T15:25:36.235Z,5.14
2023-02-16T15:28:11.306Z,5.12
2023-02-16T15:30:59.116Z,5.01
2023-02-16T15:33:43.609Z,4.84
2023-02-16T15:36:31.931Z,4.76
2023-02-16T15:39:09.428Z,4.80
2023-02-16T15:41:46.000Z,4.28
2023-02-16T15:44:36.161Z,4.66
2023-02-16T15:47:21.004Z,4.62
2023-02-16T15:49:54.348Z,4.58
2023-02-16T15:52:38.086Z,4.43
2023-02-16T15:55:13.318Z,4.29
2023-02-16T15:57:46.261Z,4.31
2023-02-16T16:00:21.901Z,4.27
2023-02-16T16:02:58.658Z,4.05
2023-02-16T16:05:35.951Z,4.06
2023-02-16T16:08:13.219Z,3.91
2023-02-16T16:10:46.768Z,3.71
2023-02-16T16:13:23.467Z,3.78
2023-02-16T16:16:02.030Z,3.47
2023-02-16T16:18:48.244Z,3.71
2023-02-16T16:21:34.471Z,3.60
2023-02-16T16:24:11.079Z,3.27
2023-02-16T16:26:59.125Z,3.43
2023-02-16T16:29:42.822Z,3.31
2023-02-16T16:32:29.093Z,3.34
2023-02-16T16:35:01.113Z,3.23
2023-02-16T16:37:37.067Z,3.20
2023-02-16T16:40:22.890Z,2.99
2023-02-16T16:43:04.016Z,3.19
2023-02-16T16:45:43.461Z,3.10
2023-02-16T16:48:26.049Z,3.12
2023-02-16T16:51:24.577Z,3.10
2023-02-16T16:54:39.968Z,3.14
2023-02-16T16:57:19.027Z,3.06
2023-02-16T16:59:51.539Z,2.94
2023-02-16T17:02:23.465Z,3.02
2023-02-16T17:04:55.394Z,2.87
2023-02-16T17:07:27.308Z,2.88
2023-02-16T17:10:00.059Z,2.75
2023-02-16T17:12:32.711Z,2.97
2023-02-16T17:15:08.153Z,3.00
2023-02-16T17:17:40.291Z,2.88
2023-02-16T17:20:15.239Z,2.94
2023-02-16T17:22:47.370Z,2.87
2023-02-16T17:25:19.647Z,2.77
2023-02-16T17:27:51.657Z,2.80
2023-02-16T17:30:23.833Z,2.73
2023-02-16T17:32:55.993Z,2.48
2023-02-16T17:35:28.761Z,2.59
2023-02-16T17:38:19.980Z,2.60
2023-02-16T17:40:55.495Z,2.65
2023-02-16T17:43:28.151Z,2.63
2023-02-16T17:46:05.121Z,2.57
2023-02-16T17:48:37.520Z,2.55
2023-02-16T17:51:15.687Z,2.50
2023-02-16T17:53:47.732Z,2.39
2023-02-16T17:56:22.465Z,2.35
2023-02-16T17:58:54.478Z,1.90
2023-02-16T18:01:26.546Z,2.21
2023-02-16T18:03:59.900Z,2.16
2023-02-16T18:06:32.010Z,2.17
2023-02-16T18:09:04.511Z,1.94
2023-02-16T18:11:36.492Z,2.06
2023-02-16T18:14:08.520Z,2.06
2023-02-16T18:16:40.779Z,2.03
2023-02-16T18:19:15.508Z,1.96
2023-02-16T18:21:47.470Z,1.95
2023-02-16T18:24:22.334Z,1.72
2023-02-16T18:26:55.824Z,1.95
2023-02-16T18:29:27.752Z,1.80
2023-02-16T18:31:59.731Z,1.88
2023-02-16T18:34:33.207Z,1.95
2023-02-16T18:37:05.232Z,1.90
2023-02-16T18:39:37.181Z,1.87
2023-02-16T18:42:10.300Z,1.86
2023-02-16T18:44:42.345Z,1.79
2023-02-16T18:47:14.910Z,1.80
2023-02-16T18:49:49.417Z,1.43
2023-02-16T18:52:21.512Z,1.69
2023-02-16T18:54:56.595Z,1.86
2023-02-16T18:57:28.588Z,1.69
2023-02-16T19:00:00.556Z,1.62
2023-02-16T19:02:32.640Z,1.74
2023-02-16T19:05:06.225Z,1.74
2023-02-16T19:07:38.208Z,1.59
2023-02-16T19:10:10.896Z,1.55
2023-02-16T19:12:42.776Z,1.56
2023-02-16T19:15:14.724Z,1.60
2023-02-16T19:17:46.747Z,1.37
2023-02-16T19:20:19.718Z,1.62
2023-02-16T19:22:52.408Z,1.60
2023-02-16T19:25:24.421Z,1.42
2023-02-16T19:27:56.436Z,1.45
2023-02-16T19:30:28.541Z,1.58
2023-02-16T19:33:00.870Z,1.49
2023-02-16T19:35:32.905Z,1.43
2023-02-16T19:38:04.881Z,1.02
2023-02-16T19:40:38.808Z,1.50
2023-02-16T19:43:10.770Z,1.49
2023-02-16T19:45:43.367Z,1.16
2023-02-16T19:48:15.307Z,0.93
2023-02-16T19:50:47.294Z,1.62
2023-02-16T19:53:19.281Z,1.61
2023-02-16T19:55:52.769Z,1.51
2023-02-16T19:58:26.787Z,1.49
2023-02-16T20:00:58.785Z,1.36
2023-02-16T20:03:30.973Z,1.53
2023-02-16T20:06:40.725Z,1.54
2023-02-16T20:09:13.671Z,1.46
2023-02-16T20:11:46.317Z,1.54
2023-02-16T20:14:18.486Z,1.40
2023-02-16T20:16:52.089Z,1.37
2023-02-16T20:19:24.251Z,1.44
2023-02-16T20:21:56.402Z,1.41
2023-02-16T20:24:28.444Z,1.15
2023-02-16T20:27:04.686Z,0.97
2023-02-16T20:29:36.687Z,1.48
2023-02-16T20:32:08.731Z,1.41
2023-02-16T20:34:40.884Z,1.41
2023-02-16T20:37:12.917Z,1.41
2023-02-16T20:39:45.596Z,1.46
2023-02-16T20:42:17.530Z,1.29
2023-02-16T20:44:49.453Z,1.33
2023-02-16T20:47:21.413Z,1.34
2023-02-16T20:49:53.614Z,1.40
2023-02-16T20:52:25.541Z,1.28
2023-02-16T20:54:57.515Z,1.22
2023-02-16T20:57:29.495Z,1.30
2023-02-16T21:00:02.551Z,1.22
2023-02-16T21:02:34.668Z,1.40
2023-02-16T21:05:08.873Z,1.35
2023-02-16T21:07:40.952Z,1.29
2023-02-16T21:10:15.438Z,1.37
2023-02-16T21:12:47.406Z,1.37
2023-02-16T21:15:19.459Z,1.16
2023-02-16T21:17:51.424Z,1.09
2023-02-16T21:20:23.495Z,1.29
2023-02-16T21:22:55.488Z,1.20
2023-02-16T21:25:27.461Z,0.94
2023-02-16T21:27:59.409Z,1.21
2023-02-16T21:30:31.547Z,1.30
2023-02-16T21:33:03.517Z,1.13
2023-02-16T21:35:35.819Z,1.15
2023-02-16T21:38:07.695Z,1.02
2023-02-16T21:40:58.144Z,0.95
2023-02-16T21:43:30.229Z,0.92
2023-02-16T21:46:02.292Z,1.05
2023-02-16T21:48:50.439Z,1.04
2023-02-16T21:51:25.876Z,1.07
2023-02-16T21:53:58.309Z,1.10
2023-02-16T21:56:44.125Z,1.09
2023-02-16T21:59:18.205Z,1.10
2023-02-16T22:01:51.703Z,1.05
2023-02-16T22:04:23.757Z,0.85
2023-02-16T22:06:56.352Z,0.92
2023-02-16T22:09:28.213Z,0.92
2023-02-16T22:12:00.196Z,0.97
2023-02-16T22:14:33.643Z,1.08
2023-02-16T22:17:07.957Z,0.98
2023-02-16T22:19:39.921Z,0.91
2023-02-16T22:22:11.888Z,0.81
2023-02-16T22:24:44.043Z,0.97
2023-02-16T22:27:16.134Z,0.90
2023-02-16T22:29:48.113Z,0.76
2023-02-16T22:32:20.242Z,0.93
2023-02-16T22:34:54.397Z,0.92
2023-02-16T22:37:26.417Z,0.92
2023-02-16T22:39:58.333Z,0.87
2023-02-16T22:42:30.375Z,0.82
2023-02-16T22:45:03.409Z,0.91
2023-02-16T22:47:35.401Z,0.86
2023-02-16T22:50:07.849Z,0.93
2023-02-16T22:52:39.834Z,0.86
2023-02-16T22:55:11.849Z,0.91
2023-02-16T22:57:43.794Z,0.92
2023-02-16T23:00:17.480Z,0.93
2023-02-16T23:02:49.447Z,0.88
2023-02-16T23:05:21.394Z,0.80
2023-02-16T23:07:53.366Z,0.91
2023-02-16T23:10:25.298Z,0.82
2023-02-16T23:12:57.259Z,0.69
2023-02-16T23:15:29.211Z,0.89
2023-02-16T23:18:01.224Z,0.69
2023-02-16T23:20:33.484Z,0.72
2023-02-16T23:23:05.715Z,0.75
2023-02-16T23:25:37.680Z,0.71
2023-02-16T23:28:11.345Z,0.20
2023-02-16T23:30:45.085Z,0.52
2023-02-16T23:33:17.135Z,0.70
2023-02-16T23:35:49.103Z,0.64
2023-02-16T23:38:21.463Z,0.83
2023-02-16T23:41:04.225Z,0.82
2023-02-16T23:43:36.194Z,0.83
2023-02-16T23:46:09.153Z,0.42
2023-02-16T23:48:41.362Z,0.77
2023-02-16T23:51:13.460Z,0.63
2023-02-16T23:53:45.441Z,0.78
2023-02-16T23:56:20.617Z,0.27
2023-02-16T23:58:56.263Z,0.68
